sensor_id;sensor_type;location;lat;lon;timestamp;pressure;altitude;pressure_sealevel;temperature;humidity
8637;BME280;4356;49.068;8.658;2023-03-26T00:00:58;99389.16;;;18.13;39.59
8637;BME280;4356;49.068;8.658;2023-03-26T00:03:24;99405.13;;;18.21;39.54
8637;BME280;4356;49.068;8.658;2023-03-26T00:06:07;99411.41;;;18.21;39.81
8637;BME280;4356;49.068;8.658;2023-03-26T00:08:34;99394.00;;;18.11;39.49
8637;BME280;4356;49.068;8.658;2023-03-26T00:11:01;99417.31;;;18.18;39.72
8637;BME280;4356;49.068;8.658;2023-03-26T00:13:27;99382.25;;;17.99;39.57
8637;BME280;4356;49.068;8.658;2023-03-26T00:15:53;99415.44;;;18.19;39.81
8637;BME280;4356;49.068;8.658;2023-03-26T00:18:19;99418.97;;;18.19;39.71
8637;BME280;4356;49.068;8.658;2023-03-26T00:20:46;99419.81;;;18.20;39.76
8637;BME280;4356;49.068;8.658;2023-03-26T00:23:14;99419.19;;;18.18;39.65
8637;BME280;4356;49.068;8.658;2023-03-26T00:25:40;99416.72;;;18.16;39.81
8637;BME280;4356;49.068;8.658;2023-03-26T00:28:08;99420.03;;;18.18;39.63
8637;BME280;4356;49.068;8.658;2023-03-26T00:30:33;99421.06;;;18.17;40.06
8637;BME280;4356;49.068;8.658;2023-03-26T00:33:08;99392.44;;;18.03;39.71
8637;BME280;4356;49.068;8.658;2023-03-26T00:35:37;99416.72;;;18.16;39.85
8637;BME280;4356;49.068;8.658;2023-03-26T00:38:02;99414.22;;;18.15;39.81
8637;BME280;4356;49.068;8.658;2023-03-26T00:40:30;99374.78;;;17.94;39.81
8637;BME280;4356;49.068;8.658;2023-03-26T00:43:01;99374.47;;;18.02;39.92
8637;BME280;4356;49.068;8.658;2023-03-26T00:45:26;99362.88;;;17.95;39.72
8637;BME280;4356;49.068;8.658;2023-03-26T00:47:52;99383.94;;;18.11;39.85
8637;BME280;4356;49.068;8.658;2023-03-26T00:50:17;99384.75;;;18.12;39.85
8637;BME280;4356;49.068;8.658;2023-03-26T00:52:44;99381.00;;;18.13;39.77
8637;BME280;4356;49.068;8.658;2023-03-26T00:55:11;99374.13;;;18.10;39.75
8637;BME280;4356;49.068;8.658;2023-03-26T00:57:37;99362.66;;;18.08;39.95
8637;BME280;4356;49.068;8.658;2023-03-26T01:00:09;99360.16;;;18.07;40.15
8637;BME280;4356;49.068;8.658;2023-03-26T01:02:39;99369.53;;;18.11;39.99
8637;BME280;4356;49.068;8.658;2023-03-26T01:06:10;99359.94;;;18.08;39.90
8637;BME280;4356;49.068;8.658;2023-03-26T01:08:48;99350.38;;;18.06;39.90
8637;BME280;4356;49.068;8.658;2023-03-26T01:11:19;99358.75;;;18.04;39.87
8637;BME280;4356;49.068;8.658;2023-03-26T01:13:56;99353.31;;;18.04;39.88
8637;BME280;4356;49.068;8.658;2023-03-26T01:16:30;99350.00;;;18.02;39.92
8637;BME280;4356;49.068;8.658;2023-03-26T01:18:57;99341.84;;;18.02;40.20
8637;BME280;4356;49.068;8.658;2023-03-26T01:21:28;99334.13;;;17.99;40.09
8637;BME280;4356;49.068;8.658;2023-03-26T01:23:55;99338.28;;;18.02;40.14
8637;BME280;4356;49.068;8.658;2023-03-26T01:26:46;99332.00;;;18.01;39.97
8637;BME280;4356;49.068;8.658;2023-03-26T01:34:51;99318.06;;;17.98;40.03
8637;BME280;4356;49.068;8.658;2023-03-26T01:40:27;99312.25;;;17.94;40.18
8637;BME280;4356;49.068;8.658;2023-03-26T01:45:48;99301.03;;;17.91;40.33
8637;BME280;4356;49.068;8.658;2023-03-26T01:48:14;99277.13;;;17.81;40.10
8637;BME280;4356;49.068;8.658;2023-03-26T01:50:40;99293.34;;;17.88;40.42
8637;BME280;4356;49.068;8.658;2023-03-26T01:53:07;99294.75;;;17.90;39.81
8637;BME280;4356;49.068;8.658;2023-03-26T01:58:33;99288.25;;;17.91;40.32
8637;BME280;4356;49.068;8.658;2023-03-26T02:01:26;99279.50;;;17.89;40.41
8637;BME280;4356;49.068;8.658;2023-03-26T02:04:04;99275.13;;;17.88;40.08
8637;BME280;4356;49.068;8.658;2023-03-26T02:09:06;99265.31;;;17.87;40.29
8637;BME280;4356;49.068;8.658;2023-03-26T02:11:34;99248.06;;;17.82;40.33
8637;BME280;4356;49.068;8.658;2023-03-26T02:14:03;99249.13;;;17.81;40.21
8637;BME280;4356;49.068;8.658;2023-03-26T02:16:30;99247.56;;;17.85;40.04
8637;BME280;4356;49.068;8.658;2023-03-26T02:18:55;99227.47;;;17.74;40.44
8637;BME280;4356;49.068;8.658;2023-03-26T02:21:25;99239.91;;;17.82;40.35
8637;BME280;4356;49.068;8.658;2023-03-26T02:23:54;99236.09;;;17.83;40.54
8637;BME280;4356;49.068;8.658;2023-03-26T02:26:29;99242.38;;;17.83;40.19
8637;BME280;4356;49.068;8.658;2023-03-26T02:28:56;99224.88;;;17.79;40.34
8637;BME280;4356;49.068;8.658;2023-03-26T02:31:22;99217.56;;;17.80;40.27
8637;BME280;4356;49.068;8.658;2023-03-26T02:33:51;99208.00;;;17.77;40.60
8637;BME280;4356;49.068;8.658;2023-03-26T02:36:17;99209.03;;;17.76;40.16
8637;BME280;4356;49.068;8.658;2023-03-26T02:38:46;99219.22;;;17.81;40.20
8637;BME280;4356;49.068;8.658;2023-03-26T02:41:11;99184.34;;;17.66;40.21
8637;BME280;4356;49.068;8.658;2023-03-26T02:43:37;99197.13;;;17.77;40.25
8637;BME280;4356;49.068;8.658;2023-03-26T02:46:03;99198.06;;;17.71;40.54
8637;BME280;4356;49.068;8.658;2023-03-26T02:48:29;99193.81;;;17.75;40.49
8637;BME280;4356;49.068;8.658;2023-03-26T02:50:56;99193.66;;;17.70;40.51
8637;BME280;4356;49.068;8.658;2023-03-26T02:53:22;99199.84;;;17.77;40.51
8637;BME280;4356;49.068;8.658;2023-03-26T02:55:48;99192.75;;;17.76;40.42
8637;BME280;4356;49.068;8.658;2023-03-26T02:58:14;99189.91;;;17.71;40.32
8637;BME280;4356;49.068;8.658;2023-03-26T03:00:44;99185.06;;;17.73;40.21
8637;BME280;4356;49.068;8.658;2023-03-26T03:03:11;99181.75;;;17.71;40.21
8637;BME280;4356;49.068;8.658;2023-03-26T03:05:38;99175.84;;;17.74;40.20
8637;BME280;4356;49.068;8.658;2023-03-26T03:08:08;99178.56;;;17.74;40.26
8637;BME280;4356;49.068;8.658;2023-03-26T03:10:34;99178.19;;;17.71;40.34
8637;BME280;4356;49.068;8.658;2023-03-26T03:13:02;99184.47;;;17.71;40.50
8637;BME280;4356;49.068;8.658;2023-03-26T03:15:30;99156.34;;;17.66;40.37
8637;BME280;4356;49.068;8.658;2023-03-26T03:17:55;99161.06;;;17.70;40.52
8637;BME280;4356;49.068;8.658;2023-03-26T03:20:21;99144.28;;;17.62;40.34
8637;BME280;4356;49.068;8.658;2023-03-26T03:22:47;99155.28;;;17.67;40.36
8637;BME280;4356;49.068;8.658;2023-03-26T03:25:13;99134.72;;;17.59;40.30
8637;BME280;4356;49.068;8.658;2023-03-26T03:27:42;99152.34;;;17.68;40.37
8637;BME280;4356;49.068;8.658;2023-03-26T03:30:10;99146.91;;;17.68;40.49
8637;BME280;4356;49.068;8.658;2023-03-26T03:32:37;99139.81;;;17.67;40.48
8637;BME280;4356;49.068;8.658;2023-03-26T03:35:03;99139.22;;;17.65;40.00
8637;BME280;4356;49.068;8.658;2023-03-26T03:37:29;99110.97;;;17.55;40.53
8637;BME280;4356;49.068;8.658;2023-03-26T03:39:55;99132.13;;;17.64;40.36
8637;BME280;4356;49.068;8.658;2023-03-26T03:42:20;99138.59;;;17.63;40.58
8637;BME280;4356;49.068;8.658;2023-03-26T03:44:46;99128.47;;;17.59;40.64
8637;BME280;4356;49.068;8.658;2023-03-26T03:47:11;99117.22;;;17.55;40.27
8637;BME280;4356;49.068;8.658;2023-03-26T03:49:38;99120.66;;;17.62;40.66
8637;BME280;4356;49.068;8.658;2023-03-26T03:52:05;99129.88;;;17.61;40.44
8637;BME280;4356;49.068;8.658;2023-03-26T03:54:31;99121.72;;;17.61;40.66
8637;BME280;4356;49.068;8.658;2023-03-26T03:56:56;99116.50;;;17.60;40.59
8637;BME280;4356;49.068;8.658;2023-03-26T03:59:22;99107.78;;;17.58;40.72
8637;BME280;4356;49.068;8.658;2023-03-26T04:01:48;99101.53;;;17.57;40.49
8637;BME280;4356;49.068;8.658;2023-03-26T04:04:15;99074.94;;;17.48;40.63
8637;BME280;4356;49.068;8.658;2023-03-26T04:06:41;99085.81;;;17.59;40.79
8637;BME280;4356;49.068;8.658;2023-03-26T04:09:07;99085.22;;;17.57;40.43
8637;BME280;4356;49.068;8.658;2023-03-26T04:11:35;99075.41;;;17.56;40.66
8637;BME280;4356;49.068;8.658;2023-03-26T04:14:01;99074.97;;;17.59;40.48
8637;BME280;4356;49.068;8.658;2023-03-26T04:16:26;99058.28;;;17.56;40.44
8637;BME280;4356;49.068;8.658;2023-03-26T04:18:52;99053.69;;;17.56;40.44
8637;BME280;4356;49.068;8.658;2023-03-26T04:21:18;99052.28;;;17.54;40.57
8637;BME280;4356;49.068;8.658;2023-03-26T04:23:44;99054.75;;;17.55;40.41
8637;BME280;4356;49.068;8.658;2023-03-26T04:26:15;99045.78;;;17.55;40.60
8637;BME280;4356;49.068;8.658;2023-03-26T04:28:47;99048.47;;;17.55;40.61
8637;BME280;4356;49.068;8.658;2023-03-26T04:31:18;99041.16;;;17.55;40.74
8637;BME280;4356;49.068;8.658;2023-03-26T04:33:49;99037.63;;;17.55;40.42
8637;BME280;4356;49.068;8.658;2023-03-26T04:36:23;99021.56;;;17.53;40.34
8637;BME280;4356;49.068;8.658;2023-03-26T04:38:52;98995.44;;;17.40;40.72
8637;BME280;4356;49.068;8.658;2023-03-26T04:41:18;99002.53;;;17.53;40.68
8637;BME280;4356;49.068;8.658;2023-03-26T04:43:44;98991.56;;;17.48;40.83
8637;BME280;4356;49.068;8.658;2023-03-26T04:46:18;99000.06;;;17.52;40.45
8637;BME280;4356;49.068;8.658;2023-03-26T04:48:49;99001.13;;;17.51;40.60
8637;BME280;4356;49.068;8.658;2023-03-26T04:51:16;99006.78;;;17.49;40.65
8637;BME280;4356;49.068;8.658;2023-03-26T04:53:53;98993.56;;;17.41;40.49
8637;BME280;4356;49.068;8.658;2023-03-26T04:59:11;99005.34;;;17.46;40.40
8637;BME280;4356;49.068;8.658;2023-03-26T05:01:39;98999.34;;;17.44;40.48
8637;BME280;4356;49.068;8.658;2023-03-26T05:04:04;99002.44;;;17.48;40.56
8637;BME280;4356;49.068;8.658;2023-03-26T05:06:30;98989.03;;;17.46;40.72
8637;BME280;4356;49.068;8.658;2023-03-26T05:08:59;98957.66;;;17.27;40.21
8637;BME280;4356;49.068;8.658;2023-03-26T05:11:33;98985.75;;;17.44;40.70
8637;BME280;4356;49.068;8.658;2023-03-26T05:13:58;98954.69;;;17.29;40.53
8637;BME280;4356;49.068;8.658;2023-03-26T05:16:24;98976.78;;;17.44;40.50
8637;BME280;4356;49.068;8.658;2023-03-26T05:18:53;98968.63;;;17.44;40.57
8637;BME280;4356;49.068;8.658;2023-03-26T05:21:21;98958.47;;;17.39;40.65
8637;BME280;4356;49.068;8.658;2023-03-26T05:23:47;98957.16;;;17.42;40.47
8637;BME280;4356;49.068;8.658;2023-03-26T05:26:13;98936.38;;;17.36;40.54
8637;BME280;4356;49.068;8.658;2023-03-26T05:28:39;98907.84;;;17.22;40.69
8637;BME280;4356;49.068;8.658;2023-03-26T05:31:12;98921.63;;;17.32;40.81
8637;BME280;4356;49.068;8.658;2023-03-26T05:33:41;98917.63;;;17.34;40.55
8637;BME280;4356;49.068;8.658;2023-03-26T05:36:09;98927.88;;;17.44;40.52
8637;BME280;4356;49.068;8.658;2023-03-26T05:38:37;98924.59;;;17.42;40.59
8637;BME280;4356;49.068;8.658;2023-03-26T05:41:05;98913.72;;;17.42;40.81
8637;BME280;4356;49.068;8.658;2023-03-26T05:43:32;98906.16;;;17.44;40.82
8637;BME280;4356;49.068;8.658;2023-03-26T05:46:02;98899.91;;;17.43;40.42
8637;BME280;4356;49.068;8.658;2023-03-26T05:48:30;98884.34;;;17.39;40.51
8637;BME280;4356;49.068;8.658;2023-03-26T05:50:57;98876.19;;;17.39;40.69
8637;BME280;4356;49.068;8.658;2023-03-26T05:53:26;98861.53;;;17.28;40.57
8637;BME280;4356;49.068;8.658;2023-03-26T05:55:52;98850.81;;;17.22;40.62
8637;BME280;4356;49.068;8.658;2023-03-26T05:58:23;98871.34;;;17.41;40.71
8637;BME280;4356;49.068;8.658;2023-03-26T06:01:06;98852.19;;;17.36;40.53
8637;BME280;4356;49.068;8.658;2023-03-26T06:03:37;98837.69;;;17.30;40.52
8637;BME280;4356;49.068;8.658;2023-03-26T06:06:11;98844.66;;;17.38;40.50
8637;BME280;4356;49.068;8.658;2023-03-26T06:08:46;98838.38;;;17.37;40.66
8637;BME280;4356;49.068;8.658;2023-03-26T06:11:13;98838.75;;;17.41;40.69
8637;BME280;4356;49.068;8.658;2023-03-26T06:13:40;98834.13;;;17.41;40.73
8637;BME280;4356;49.068;8.658;2023-03-26T06:16:06;98837.91;;;17.40;40.81
8637;BME280;4356;49.068;8.658;2023-03-26T06:18:32;98840.88;;;17.39;40.53
8637;BME280;4356;49.068;8.658;2023-03-26T06:20:58;98819.03;;;17.34;40.55
8637;BME280;4356;49.068;8.658;2023-03-26T06:23:24;98828.84;;;17.35;40.47
8637;BME280;4356;49.068;8.658;2023-03-26T06:25:49;98816.22;;;17.29;40.79
8637;BME280;4356;49.068;8.658;2023-03-26T06:28:15;98810.06;;;17.33;40.59
8637;BME280;4356;49.068;8.658;2023-03-26T06:30:41;98823.50;;;17.40;40.76
8637;BME280;4356;49.068;8.658;2023-03-26T06:33:07;98807.13;;;17.35;40.79
8637;BME280;4356;49.068;8.658;2023-03-26T06:35:33;98775.88;;;17.21;40.65
8637;BME280;4356;49.068;8.658;2023-03-26T06:37:58;98775.88;;;17.21;40.64
8637;BME280;4356;49.068;8.658;2023-03-26T06:40:24;98808.03;;;17.40;40.83
8637;BME280;4356;49.068;8.658;2023-03-26T06:42:53;98796.34;;;17.40;40.94
8637;BME280;4356;49.068;8.658;2023-03-26T06:45:20;98785.06;;;17.31;40.79
8637;BME280;4356;49.068;8.658;2023-03-26T06:47:46;98781.59;;;17.36;40.49
8637;BME280;4356;49.068;8.658;2023-03-26T06:50:12;98767.09;;;17.30;40.76
8637;BME280;4356;49.068;8.658;2023-03-26T06:52:38;98784.66;;;17.39;40.89
8637;BME280;4356;49.068;8.658;2023-03-26T06:55:04;98783.97;;;17.32;40.87
8637;BME280;4356;49.068;8.658;2023-03-26T06:57:31;98793.28;;;17.36;40.49
8637;BME280;4356;49.068;8.658;2023-03-26T06:59:57;98803.91;;;17.38;40.77
8637;BME280;4356;49.068;8.658;2023-03-26T07:02:22;98772.19;;;17.27;40.51
8637;BME280;4356;49.068;8.658;2023-03-26T07:04:48;98784.81;;;17.33;40.57
8637;BME280;4356;49.068;8.658;2023-03-26T07:07:14;98770.88;;;17.29;40.90
8637;BME280;4356;49.068;8.658;2023-03-26T07:09:40;98783.03;;;17.38;40.67
8637;BME280;4356;49.068;8.658;2023-03-26T07:12:08;98767.09;;;17.30;40.82
8637;BME280;4356;49.068;8.658;2023-03-26T07:14:34;98762.31;;;17.21;40.65
8637;BME280;4356;49.068;8.658;2023-03-26T07:17:02;98760.53;;;17.26;40.67
8637;BME280;4356;49.068;8.658;2023-03-26T07:19:31;98748.25;;;17.24;40.88
8637;BME280;4356;49.068;8.658;2023-03-26T07:21:57;98773.44;;;17.36;40.63
8637;BME280;4356;49.068;8.658;2023-03-26T07:24:26;98768.03;;;17.36;40.50
8637;BME280;4356;49.068;8.658;2023-03-26T07:29:42;98783.59;;;17.40;40.83
8637;BME280;4356;49.068;8.658;2023-03-26T07:32:38;98770.28;;;17.39;40.91
8637;BME280;4356;49.068;8.658;2023-03-26T07:35:40;98771.56;;;17.36;40.60
8637;BME280;4356;49.068;8.658;2023-03-26T07:46:16;98740.41;;;17.39;40.83
8637;BME280;4356;49.068;8.658;2023-03-26T07:48:44;98734.63;;;17.35;41.12
8637;BME280;4356;49.068;8.658;2023-03-26T07:51:14;98730.00;;;17.36;40.94
8637;BME280;4356;49.068;8.658;2023-03-26T07:53:42;98721.53;;;17.32;41.28
8637;BME280;4356;49.068;8.658;2023-03-26T08:04:58;98708.53;;;17.34;41.17
8637;BME280;4356;49.068;8.658;2023-03-26T08:10:21;98714.88;;;17.40;41.03
8637;BME280;4356;49.068;8.658;2023-03-26T08:13:17;98715.13;;;17.38;41.25
8637;BME280;4356;49.068;8.658;2023-03-26T08:21:09;98702.03;;;17.35;41.16
8637;BME280;4356;49.068;8.658;2023-03-26T08:27:18;98703.44;;;17.38;40.95
8637;BME280;4356;49.068;8.658;2023-03-26T08:29:57;98709.69;;;17.38;41.30
8637;BME280;4356;49.068;8.658;2023-03-26T08:32:26;98713.25;;;17.39;41.08
8637;BME280;4356;49.068;8.658;2023-03-26T08:34:52;98705.09;;;17.39;41.09
8637;BME280;4356;49.068;8.658;2023-03-26T08:37:18;98704.50;;;17.37;40.99
8637;BME280;4356;49.068;8.658;2023-03-26T08:39:44;98680.03;;;17.20;41.17
8637;BME280;4356;49.068;8.658;2023-03-26T08:45:04;98704.84;;;17.40;41.14
8637;BME280;4356;49.068;8.658;2023-03-26T08:56:07;98691.03;;;17.42;41.30
8637;BME280;4356;49.068;8.658;2023-03-26T09:01:58;98688.06;;;17.43;41.32
8637;BME280;4356;49.068;8.658;2023-03-26T09:04:42;98688.06;;;17.43;41.28
8637;BME280;4356;49.068;8.658;2023-03-26T09:10:23;98677.19;;;17.43;41.22
8637;BME280;4356;49.068;8.658;2023-03-26T09:13:09;98675.31;;;17.44;41.41
8637;BME280;4356;49.068;8.658;2023-03-26T09:24:28;98682.13;;;17.46;41.30
8637;BME280;4356;49.068;8.658;2023-03-26T09:41:00;98665.66;;;17.48;41.12
8637;BME280;4356;49.068;8.658;2023-03-26T09:55:18;98667.09;;;17.56;41.31
8637;BME280;4356;49.068;8.658;2023-03-26T10:00:43;98663.59;;;17.55;41.34
8637;BME280;4356;49.068;8.658;2023-03-26T10:03:44;98664.19;;;17.57;41.49
8637;BME280;4356;49.068;8.658;2023-03-26T10:07:04;98657.66;;;17.58;41.60
8637;BME280;4356;49.068;8.658;2023-03-26T10:20:01;98658.56;;;17.64;41.28
8637;BME280;4356;49.068;8.658;2023-03-26T10:23:34;98644.72;;;17.65;41.65
8637;BME280;4356;49.068;8.658;2023-03-26T10:31:53;98619.97;;;17.78;41.62
8637;BME280;4356;49.068;8.658;2023-03-26T10:37:09;98634.91;;;17.97;40.93
8637;BME280;4356;49.068;8.658;2023-03-26T10:39:54;98644.22;;;18.01;41.34
8637;BME280;4356;49.068;8.658;2023-03-26T10:42:43;98641.84;;;18.05;40.90
8637;BME280;4356;49.068;8.658;2023-03-26T10:51:26;98630.69;;;18.23;40.02
8637;BME280;4356;49.068;8.658;2023-03-26T10:54:05;98620.97;;;18.27;40.04
8637;BME280;4356;49.068;8.658;2023-03-26T10:56:39;98619.66;;;18.29;39.88
8637;BME280;4356;49.068;8.658;2023-03-26T10:59:07;98609.66;;;18.35;39.57
8637;BME280;4356;49.068;8.658;2023-03-26T11:15:09;98610.31;;;18.64;39.00
8637;BME280;4356;49.068;8.658;2023-03-26T11:20:20;98616.41;;;18.71;38.83
8637;BME280;4356;49.068;8.658;2023-03-26T11:26:16;98627.16;;;18.82;38.07
8637;BME280;4356;49.068;8.658;2023-03-26T11:32:10;98631.06;;;18.91;38.09
8637;BME280;4356;49.068;8.658;2023-03-26T11:34:44;98614.22;;;18.94;37.41
8637;BME280;4356;49.068;8.658;2023-03-26T11:37:32;98620.81;;;18.98;37.63
8637;BME280;4356;49.068;8.658;2023-03-26T11:40:01;98620.59;;;19.05;37.43
8637;BME280;4356;49.068;8.658;2023-03-26T11:42:31;98628.56;;;19.11;37.43
8637;BME280;4356;49.068;8.658;2023-03-26T11:45:14;98614.44;;;19.14;37.65
8637;BME280;4356;49.068;8.658;2023-03-26T11:47:46;98610.13;;;19.18;37.53
8637;BME280;4356;49.068;8.658;2023-03-26T11:50:21;98600.59;;;19.21;37.21
8637;BME280;4356;49.068;8.658;2023-03-26T11:52:48;98613.72;;;19.24;37.63
8637;BME280;4356;49.068;8.658;2023-03-26T11:55:14;98600.66;;;19.26;37.44
8637;BME280;4356;49.068;8.658;2023-03-26T11:57:46;98617.41;;;19.34;37.22
8637;BME280;4356;49.068;8.658;2023-03-26T12:00:16;98608.44;;;19.39;37.10
8637;BME280;4356;49.068;8.658;2023-03-26T12:02:46;98596.66;;;19.33;37.33
8637;BME280;4356;49.068;8.658;2023-03-26T12:05:17;98601.44;;;19.48;37.10
8637;BME280;4356;49.068;8.658;2023-03-26T12:07:46;98592.47;;;19.48;36.68
8637;BME280;4356;49.068;8.658;2023-03-26T12:13:01;98603.66;;;19.51;36.87
8637;BME280;4356;49.068;8.658;2023-03-26T12:15:29;98614.03;;;19.54;36.01
8637;BME280;4356;49.068;8.658;2023-03-26T12:17:57;98618.16;;;19.57;36.56
8637;BME280;4356;49.068;8.658;2023-03-26T12:22:50;98631.78;;;19.57;35.92
8637;BME280;4356;49.068;8.658;2023-03-26T12:25:28;98616.50;;;19.56;36.00
8637;BME280;4356;49.068;8.658;2023-03-26T12:31:00;98610.78;;;19.57;36.68
8637;BME280;4356;49.068;8.658;2023-03-26T12:35:55;98596.34;;;19.57;36.26
8637;BME280;4356;49.068;8.658;2023-03-26T12:41:15;98587.38;;;19.61;36.68
8637;BME280;4356;49.068;8.658;2023-03-26T12:43:49;98578.09;;;19.62;36.57
8637;BME280;4356;49.068;8.658;2023-03-26T12:46:30;98584.97;;;19.65;36.42
8637;BME280;4356;49.068;8.658;2023-03-26T12:49:03;98575.72;;;19.66;36.26
8637;BME280;4356;49.068;8.658;2023-03-26T12:51:52;98567.84;;;19.69;35.91
8637;BME280;4356;49.068;8.658;2023-03-26T12:57:15;98571.91;;;19.72;36.47
8637;BME280;4356;49.068;8.658;2023-03-26T12:59:52;98565.63;;;19.71;36.04
8637;BME280;4356;49.068;8.658;2023-03-26T13:02:41;98564.84;;;19.71;36.21
8637;BME280;4356;49.068;8.658;2023-03-26T13:10:48;98551.22;;;19.71;35.64
8637;BME280;4356;49.068;8.658;2023-03-26T13:16:14;98542.50;;;19.74;36.12
8637;BME280;4356;49.068;8.658;2023-03-26T13:22:00;98536.53;;;19.77;35.96
8637;BME280;4356;49.068;8.658;2023-03-26T13:24:52;98529.47;;;19.81;34.81
8637;BME280;4356;49.068;8.658;2023-03-26T13:27:34;98529.19;;;19.82;35.58
8637;BME280;4356;49.068;8.658;2023-03-26T13:30:22;98531.69;;;19.84;34.98
8637;BME280;4356;49.068;8.658;2023-03-26T13:35:38;98531.16;;;19.87;35.94
8637;BME280;4356;49.068;8.658;2023-03-26T13:41:50;98523.53;;;19.89;35.43
8637;BME280;4356;49.068;8.658;2023-03-26T13:47:45;98534.16;;;19.90;35.28
8637;BME280;4356;49.068;8.658;2023-03-26T13:50:20;98534.16;;;19.90;35.54
8637;BME280;4356;49.068;8.658;2023-03-26T13:53:20;98520.47;;;19.80;34.98
8637;BME280;4356;49.068;8.658;2023-03-26T13:55:52;98515.31;;;19.84;35.06
8637;BME280;4356;49.068;8.658;2023-03-26T13:58:29;98534.44;;;19.89;35.96
8637;BME280;4356;49.068;8.658;2023-03-26T14:01:20;98543.13;;;19.86;35.15
8637;BME280;4356;49.068;8.658;2023-03-26T14:06:41;98547.22;;;19.83;35.74
8637;BME280;4356;49.068;8.658;2023-03-26T14:09:23;98559.44;;;19.81;35.52
8637;BME280;4356;49.068;8.658;2023-03-26T14:17:03;98585.84;;;19.75;35.90
8637;BME280;4356;49.068;8.658;2023-03-26T14:19:56;98600.28;;;19.71;36.03
8637;BME280;4356;49.068;8.658;2023-03-26T14:25:15;98614.09;;;19.64;36.33
8637;BME280;4356;49.068;8.658;2023-03-26T14:27:55;98613.19;;;19.54;36.30
8637;BME280;4356;49.068;8.658;2023-03-26T14:42:42;98662.03;;;19.33;36.90
8637;BME280;4356;49.068;8.658;2023-03-26T14:53:12;98671.22;;;19.27;37.12
8637;BME280;4356;49.068;8.658;2023-03-26T14:55:55;98683.50;;;19.30;37.26
8637;BME280;4356;49.068;8.658;2023-03-26T15:01:20;98673.66;;;19.24;37.39
8637;BME280;4356;49.068;8.658;2023-03-26T15:10:21;98659.63;;;19.15;37.83
8637;BME280;4356;49.068;8.658;2023-03-26T15:27:22;98627.34;;;19.02;38.19
8637;BME280;4356;49.068;8.658;2023-03-26T15:36:01;98620.50;;;18.95;38.26
8637;BME280;4356;49.068;8.658;2023-03-26T15:38:58;98616.38;;;18.92;38.18
8637;BME280;4356;49.068;8.658;2023-03-26T15:42:03;98616.63;;;18.91;38.24
8637;BME280;4356;49.068;8.658;2023-03-26T15:44:52;98617.38;;;18.86;38.25
8637;BME280;4356;49.068;8.658;2023-03-26T15:50:36;98617.34;;;18.81;38.68
8637;BME280;4356;49.068;8.658;2023-03-26T15:55:41;98604.69;;;18.70;38.66
8637;BME280;4356;49.068;8.658;2023-03-26T16:00:54;98621.63;;;18.77;38.61
8637;BME280;4356;49.068;8.658;2023-03-26T16:03:57;98608.44;;;18.64;38.83
8637;BME280;4356;49.068;8.658;2023-03-26T16:09:37;98643.09;;;18.74;39.03
8637;BME280;4356;49.068;8.658;2023-03-26T16:14:45;98633.94;;;18.58;39.10
8637;BME280;4356;49.068;8.658;2023-03-26T16:17:16;98650.94;;;18.70;39.10
8637;BME280;4356;49.068;8.658;2023-03-26T16:22:53;98657.72;;;18.68;38.90
8637;BME280;4356;49.068;8.658;2023-03-26T16:25:27;98652.19;;;18.63;39.05
8637;BME280;4356;49.068;8.658;2023-03-26T16:30:36;98661.97;;;18.59;39.04
8637;BME280;4356;49.068;8.658;2023-03-26T16:33:10;98660.88;;;18.60;38.88
8637;BME280;4356;49.068;8.658;2023-03-26T16:38:45;98681.50;;;18.56;39.00
8637;BME280;4356;49.068;8.658;2023-03-26T16:41:22;98683.63;;;18.54;39.18
8637;BME280;4356;49.068;8.658;2023-03-26T16:54:52;98690.41;;;18.51;39.46
8637;BME280;4356;49.068;8.658;2023-03-26T16:57:35;98676.88;;;18.39;39.26
8637;BME280;4356;49.068;8.658;2023-03-26T17:13:48;98693.47;;;18.38;39.32
8637;BME280;4356;49.068;8.658;2023-03-26T17:16:32;98682.78;;;18.31;39.56
8637;BME280;4356;49.068;8.658;2023-03-26T17:19:25;98693.72;;;18.36;39.53
8637;BME280;4356;49.068;8.658;2023-03-26T17:22:06;98691.72;;;18.32;39.95
8637;BME280;4356;49.068;8.658;2023-03-26T17:24:37;98696.13;;;18.33;39.69
8637;BME280;4356;49.068;8.658;2023-03-26T17:33:21;98679.72;;;18.28;39.96
8637;BME280;4356;49.068;8.658;2023-03-26T17:35:49;98677.22;;;18.26;39.67
8637;BME280;4356;49.068;8.658;2023-03-26T17:40:58;98672.81;;;18.20;40.05
8637;BME280;4356;49.068;8.658;2023-03-26T17:43:45;98676.09;;;18.22;39.80
8637;BME280;4356;49.068;8.658;2023-03-26T17:46:33;98674.44;;;18.21;40.02
8637;BME280;4356;49.068;8.658;2023-03-26T17:49:20;98678.50;;;18.19;39.55
8637;BME280;4356;49.068;8.658;2023-03-26T17:51:55;98673.53;;;18.16;39.78
8637;BME280;4356;49.068;8.658;2023-03-26T17:54:31;98663.31;;;18.06;39.82
8637;BME280;4356;49.068;8.658;2023-03-26T17:57:05;98679.25;;;18.14;39.93
8637;BME280;4356;49.068;8.658;2023-03-26T17:59:34;98671.84;;;18.10;40.15
8637;BME280;4356;49.068;8.658;2023-03-26T18:02:03;98679.75;;;18.11;40.11
8637;BME280;4356;49.068;8.658;2023-03-26T18:04:37;98666.63;;;18.08;39.71
8637;BME280;4356;49.068;8.658;2023-03-26T18:07:40;98670.50;;;18.12;39.80
8637;BME280;4356;49.068;8.658;2023-03-26T18:10:27;98672.63;;;18.10;40.13
8637;BME280;4356;49.068;8.658;2023-03-26T18:18:10;98679.09;;;18.04;40.07
8637;BME280;4356;49.068;8.658;2023-03-26T18:20:38;98676.28;;;17.99;39.77
8637;BME280;4356;49.068;8.658;2023-03-26T18:23:19;98674.13;;;18.01;40.22
8637;BME280;4356;49.068;8.658;2023-03-26T18:25:53;98655.22;;;17.90;40.23
8637;BME280;4356;49.068;8.658;2023-03-26T18:28:28;98672.97;;;17.97;40.20
8637;BME280;4356;49.068;8.658;2023-03-26T18:30:54;98682.78;;;17.98;40.27
8637;BME280;4356;49.068;8.658;2023-03-26T18:33:40;98683.03;;;17.97;40.04
8637;BME280;4356;49.068;8.658;2023-03-26T18:36:09;98675.94;;;17.96;40.24
8637;BME280;4356;49.068;8.658;2023-03-26T18:38:35;98686.50;;;17.92;39.94
8637;BME280;4356;49.068;8.658;2023-03-26T18:41:02;98680.41;;;17.85;39.84
8637;BME280;4356;49.068;8.658;2023-03-26T18:43:28;98681.22;;;17.86;39.88
8637;BME280;4356;49.068;8.658;2023-03-26T18:45:54;98679.09;;;17.88;40.13
8637;BME280;4356;49.068;8.658;2023-03-26T18:48:22;98688.38;;;17.92;40.34
8637;BME280;4356;49.068;8.658;2023-03-26T18:51:08;98685.66;;;17.92;39.91
8637;BME280;4356;49.068;8.658;2023-03-26T18:53:50;98682.38;;;17.90;40.22
8637;BME280;4356;49.068;8.658;2023-03-26T18:58:49;98675.78;;;17.86;40.33
8637;BME280;4356;49.068;8.658;2023-03-26T19:01:16;98689.13;;;17.87;39.98
8637;BME280;4356;49.068;8.658;2023-03-26T19:03:44;98678.97;;;17.83;40.41
8637;BME280;4356;49.068;8.658;2023-03-26T19:06:12;98682.53;;;17.83;40.31